Pagrindinis puslapis
METAR-TAF:

METAR-TAF

Oro uostai :

Karakasas, Venesuela

platuma: 10-36N, ilguma: 066-59W, Aukštis: 43 m

Dabartinis oras

Ataskaita buvo paskelbta 54 minutes, ne 22:02 UTC
Vėjas 9 kt iš Rytų/Šiaurės Rytų
Temperatūra
Slėgis 1012 hPa

METAR: SVMI 302202Z AUTO 07009KT NCD ///// Q1012

Laikas: 18:56 (22:56 UTC)

Prognozė

Ataskaita buvo paskelbta 6 valandos ir 56 minutes, ne 16:00 UTC
Prognozė galioja nuo 30 metu 18 UTC su 31 metu 18 UTC
Vėjas 5 kt iš Rytų
Matomumas 10 km arba daugiau
Išsisklaidę debesys ne aukštis 1600 ft
Tapsmas
nuo 30 metu 18 UTC su 30 metu 22 UTC
Vėjas 6 kt iš Rytų/Šiaurės Rytų
Matomumas 10 km arba daugiau
Išsisklaidę debesys ne aukštis 1600 ft
Su prošvaistėmis ne aukštis 7000 ft

TAF: SVMI 301600Z 3018/3118 09005KT 9999 SCT016 TX33/18Z TN25/09Z BECMG 3018/3022 06006KT 9999 SCT016 BKN070

Orai ataskaitas ir orų prognozės (METAR, TAF).

turimą stotys yra geltonos ir raudonos taškus žemėlapyje.

Perkelti pele per norėdami pamatyti stoties vardą.

Tada spustelėkite, norėdami matyti oro stebėjimo ir prognozės.

Norėdami pakeisti žemėlapį: spustelėkite ant žalios mygtukų su juodo kryžiaus žemyn,; žalią mygtuką su brūkšneliu, jei norite nutolinti; arba žalių rodyklių gretimoms žemėlapius.


METAR-TAF: